Etusivu
METAR-TAF:

METAR-TAF

Lentoasemat :

Pembrey, Wales

Leveyspiiri: 51-43N, Pituuspiiri: 004-22W, korkeus merenpinnasta: 3 m

Tämänhetkinen sää

Tämä raportti tehtiin 36 minuuttia sitten, kello 20.50 UTC
Tuuli 8 kn idästä
Lämpötila 3°C
Kosteus 93%
Ilmanpaine 1017 hPa
Näkyvyys 10 km tai enemmän

METAR: EGOP 182050Z AUTO 10008KT 9999 // NCD 03/02 Q1017

Aika: 21:26 (21:26 UTC)


TAF: puuttuu

Säähavainnot ja -ennusteet yli 4000 lentoasemalta (METAR- ja TAF-raportit).

Käytössä olevat sääasemat on merkitty karttaan keltaisilla ja punaisilla pisteillä.

Aseta hiiri pisteen päälle nähdäksesi sääaseman nimen.

Klikkaa sitten nähdäksesi säähavainnot ja -ennusteet.

Kartan vaihtaminen: klikkaa mustalla rastilla varustettuja vihreitä pisteitä, niin voit zoomata sisään; viivalla varustettua vihreää pistettä, niin voit zoomata ulos tai vihreitä nuolia, niin pääset viereisille kartoille.


METAR-TAF: